sensor_id;sensor_type;location;lat;lon;timestamp;P1;durP1;ratioP1;P2;durP2;ratioP2
37349;SDS011;23231;52.358;4.926;2023-04-19T00:04:16;17.23;;;10.23;;
37349;SDS011;23231;52.358;4.926;2023-04-19T00:09:16;18.17;;;10.25;;
37349;SDS011;23231;52.358;4.926;2023-04-19T00:14:16;16.45;;;10.35;;
37349;SDS011;23231;52.358;4.926;2023-04-19T00:19:17;17.42;;;10.80;;
37349;SDS011;23231;52.358;4.926;2023-04-19T00:24:17;16.75;;;10.45;;
37349;SDS011;23231;52.358;4.926;2023-04-19T00:29:18;17.63;;;10.85;;
37349;SDS011;23231;52.358;4.926;2023-04-19T00:34:18;18.52;;;11.82;;
37349;SDS011;23231;52.358;4.926;2023-04-19T00:39:19;18.35;;;11.57;;
37349;SDS011;23231;52.358;4.926;2023-04-19T00:44:19;18.73;;;11.88;;
37349;SDS011;23231;52.358;4.926;2023-04-19T00:49:19;20.42;;;11.70;;
37349;SDS011;23231;52.358;4.926;2023-04-19T00:54:21;19.65;;;11.48;;
37349;SDS011;23231;52.358;4.926;2023-04-19T00:59:22;20.77;;;12.30;;
37349;SDS011;23231;52.358;4.926;2023-04-19T01:04:23;18.13;;;12.32;;
37349;SDS011;23231;52.358;4.926;2023-04-19T01:09:24;22.10;;;13.40;;
37349;SDS011;23231;52.358;4.926;2023-04-19T01:14:24;21.25;;;12.80;;
37349;SDS011;23231;52.358;4.926;2023-04-19T01:19:25;21.10;;;13.35;;
37349;SDS011;23231;52.358;4.926;2023-04-19T01:24:25;20.35;;;13.05;;
37349;SDS011;23231;52.358;4.926;2023-04-19T01:29:26;26.25;;;13.95;;
37349;SDS011;23231;52.358;4.926;2023-04-19T01:34:26;21.15;;;13.05;;
37349;SDS011;23231;52.358;4.926;2023-04-19T01:39:27;23.45;;;14.20;;
37349;SDS011;23231;52.358;4.926;2023-04-19T01:44:27;25.00;;;14.15;;
37349;SDS011;23231;52.358;4.926;2023-04-19T01:49:28;22.55;;;14.65;;
37349;SDS011;23231;52.358;4.926;2023-04-19T01:54:28;24.85;;;15.25;;
37349;SDS011;23231;52.358;4.926;2023-04-19T01:59:29;21.52;;;13.88;;
37349;SDS011;23231;52.358;4.926;2023-04-19T02:04:29;21.23;;;13.73;;
37349;SDS011;23231;52.358;4.926;2023-04-19T02:09:29;21.40;;;13.98;;
37349;SDS011;23231;52.358;4.926;2023-04-19T02:14:30;22.33;;;14.65;;
37349;SDS011;23231;52.358;4.926;2023-04-19T02:19:31;23.05;;;14.30;;
37349;SDS011;23231;52.358;4.926;2023-04-19T02:24:31;23.80;;;14.70;;
37349;SDS011;23231;52.358;4.926;2023-04-19T02:29:32;23.67;;;14.57;;
37349;SDS011;23231;52.358;4.926;2023-04-19T02:34:32;23.20;;;14.98;;
37349;SDS011;23231;52.358;4.926;2023-04-19T02:39:33;22.88;;;14.50;;
37349;SDS011;23231;52.358;4.926;2023-04-19T02:44:34;25.88;;;14.75;;
37349;SDS011;23231;52.358;4.926;2023-04-19T02:49:34;21.55;;;13.63;;
37349;SDS011;23231;52.358;4.926;2023-04-19T02:54:36;21.15;;;14.30;;
37349;SDS011;23231;52.358;4.926;2023-04-19T02:59:37;22.35;;;14.45;;
37349;SDS011;23231;52.358;4.926;2023-04-19T03:04:37;20.92;;;13.88;;
37349;SDS011;23231;52.358;4.926;2023-04-19T03:09:38;19.73;;;13.07;;
37349;SDS011;23231;52.358;4.926;2023-04-19T03:14:38;23.05;;;14.27;;
37349;SDS011;23231;52.358;4.926;2023-04-19T03:19:38;21.52;;;13.55;;
37349;SDS011;23231;52.358;4.926;2023-04-19T03:24:39;26.27;;;14.35;;
37349;SDS011;23231;52.358;4.926;2023-04-19T03:29:39;22.92;;;13.57;;
37349;SDS011;23231;52.358;4.926;2023-04-19T03:34:39;22.98;;;12.85;;
37349;SDS011;23231;52.358;4.926;2023-04-19T03:39:40;22.23;;;13.65;;
37349;SDS011;23231;52.358;4.926;2023-04-19T03:44:40;20.30;;;12.88;;
37349;SDS011;23231;52.358;4.926;2023-04-19T03:49:41;23.13;;;12.70;;
37349;SDS011;23231;52.358;4.926;2023-04-19T03:54:41;20.23;;;13.45;;
37349;SDS011;23231;52.358;4.926;2023-04-19T03:59:41;22.75;;;13.73;;
37349;SDS011;23231;52.358;4.926;2023-04-19T04:04:42;20.67;;;13.57;;
37349;SDS011;23231;52.358;4.926;2023-04-19T04:09:42;21.00;;;11.95;;
37349;SDS011;23231;52.358;4.926;2023-04-19T04:14:44;24.73;;;13.77;;
37349;SDS011;23231;52.358;4.926;2023-04-19T04:19:44;21.33;;;12.25;;
37349;SDS011;23231;52.358;4.926;2023-04-19T04:24:44;22.02;;;13.23;;
37349;SDS011;23231;52.358;4.926;2023-04-19T04:29:46;20.60;;;12.13;;
37349;SDS011;23231;52.358;4.926;2023-04-19T04:34:48;19.05;;;12.07;;
37349;SDS011;23231;52.358;4.926;2023-04-19T04:39:49;19.13;;;11.40;;
37349;SDS011;23231;52.358;4.926;2023-04-19T04:44:49;19.02;;;10.85;;
37349;SDS011;23231;52.358;4.926;2023-04-19T04:49:50;19.77;;;11.20;;
37349;SDS011;23231;52.358;4.926;2023-04-19T04:54:51;18.40;;;11.15;;
37349;SDS011;23231;52.358;4.926;2023-04-19T04:59:52;19.88;;;10.73;;
37349;SDS011;23231;52.358;4.926;2023-04-19T05:04:52;16.00;;;10.18;;
37349;SDS011;23231;52.358;4.926;2023-04-19T05:09:52;17.90;;;9.20;;
37349;SDS011;23231;52.358;4.926;2023-04-19T05:14:53;17.60;;;9.38;;
37349;SDS011;23231;52.358;4.926;2023-04-19T05:19:53;15.40;;;9.30;;
37349;SDS011;23231;52.358;4.926;2023-04-19T05:24:53;16.52;;;10.07;;
37349;SDS011;23231;52.358;4.926;2023-04-19T05:29:54;17.73;;;9.43;;
37349;SDS011;23231;52.358;4.926;2023-04-19T05:34:54;14.35;;;7.95;;
37349;SDS011;23231;52.358;4.926;2023-04-19T05:39:55;13.75;;;8.60;;
37349;SDS011;23231;52.358;4.926;2023-04-19T05:44:56;15.95;;;8.43;;
37349;SDS011;23231;52.358;4.926;2023-04-19T05:49:56;14.43;;;8.65;;
37349;SDS011;23231;52.358;4.926;2023-04-19T05:54:57;14.00;;;8.23;;
37349;SDS011;23231;52.358;4.926;2023-04-19T05:59:58;17.50;;;8.52;;
37349;SDS011;23231;52.358;4.926;2023-04-19T06:04:58;11.73;;;7.80;;
37349;SDS011;23231;52.358;4.926;2023-04-19T06:09:58;14.40;;;7.63;;
37349;SDS011;23231;52.358;4.926;2023-04-19T06:14:59;10.88;;;6.88;;
37349;SDS011;23231;52.358;4.926;2023-04-19T06:19:59;13.30;;;7.15;;
37349;SDS011;23231;52.358;4.926;2023-04-19T06:25:00;18.45;;;7.60;;
37349;SDS011;23231;52.358;4.926;2023-04-19T06:30:01;13.63;;;7.93;;
37349;SDS011;23231;52.358;4.926;2023-04-19T06:35:01;13.57;;;7.50;;
37349;SDS011;23231;52.358;4.926;2023-04-19T06:40:03;13.38;;;6.97;;
37349;SDS011;23231;52.358;4.926;2023-04-19T06:45:06;10.57;;;6.20;;
37349;SDS011;23231;52.358;4.926;2023-04-19T06:50:07;10.15;;;6.05;;
37349;SDS011;23231;52.358;4.926;2023-04-19T06:55:08;12.10;;;6.10;;
37349;SDS011;23231;52.358;4.926;2023-04-19T07:00:09;11.52;;;6.68;;
37349;SDS011;23231;52.358;4.926;2023-04-19T07:05:10;9.30;;;5.40;;
37349;SDS011;23231;52.358;4.926;2023-04-19T07:10:12;8.80;;;5.47;;
37349;SDS011;23231;52.358;4.926;2023-04-19T07:15:13;9.60;;;5.72;;
37349;SDS011;23231;52.358;4.926;2023-04-19T07:20:14;8.45;;;5.43;;
37349;SDS011;23231;52.358;4.926;2023-04-19T07:25:15;11.90;;;6.20;;
37349;SDS011;23231;52.358;4.926;2023-04-19T07:30:15;10.00;;;5.65;;
37349;SDS011;23231;52.358;4.926;2023-04-19T07:35:15;12.30;;;5.30;;
37349;SDS011;23231;52.358;4.926;2023-04-19T07:40:16;9.82;;;5.20;;
37349;SDS011;23231;52.358;4.926;2023-04-19T07:45:16;8.70;;;4.70;;
37349;SDS011;23231;52.358;4.926;2023-04-19T07:50:16;9.60;;;5.35;;
37349;SDS011;23231;52.358;4.926;2023-04-19T07:55:17;9.23;;;4.95;;
37349;SDS011;23231;52.358;4.926;2023-04-19T08:00:18;8.82;;;4.97;;
37349;SDS011;23231;52.358;4.926;2023-04-19T08:05:20;7.97;;;4.40;;
37349;SDS011;23231;52.358;4.926;2023-04-19T08:10:21;7.35;;;4.50;;
37349;SDS011;23231;52.358;4.926;2023-04-19T08:15:21;10.27;;;5.22;;
37349;SDS011;23231;52.358;4.926;2023-04-19T08:20:21;8.90;;;4.50;;
37349;SDS011;23231;52.358;4.926;2023-04-19T08:25:23;7.50;;;4.22;;
37349;SDS011;23231;52.358;4.926;2023-04-19T08:30:27;7.47;;;3.63;;
37349;SDS011;23231;52.358;4.926;2023-04-19T08:35:27;6.90;;;3.70;;
37349;SDS011;23231;52.358;4.926;2023-04-19T08:40:29;6.38;;;3.60;;
37349;SDS011;23231;52.358;4.926;2023-04-19T08:45:30;7.30;;;3.42;;
37349;SDS011;23231;52.358;4.926;2023-04-19T08:50:31;8.15;;;3.45;;
37349;SDS011;23231;52.358;4.926;2023-04-19T08:55:31;6.63;;;3.25;;
37349;SDS011;23231;52.358;4.926;2023-04-19T09:00:32;7.30;;;3.28;;
37349;SDS011;23231;52.358;4.926;2023-04-19T09:05:33;7.30;;;3.47;;
37349;SDS011;23231;52.358;4.926;2023-04-19T09:10:33;5.88;;;2.70;;
37349;SDS011;23231;52.358;4.926;2023-04-19T09:15:37;5.57;;;2.40;;
37349;SDS011;23231;52.358;4.926;2023-04-19T09:20:39;6.63;;;2.97;;
37349;SDS011;23231;52.358;4.926;2023-04-19T09:25:49;5.32;;;2.97;;
37349;SDS011;23231;52.358;4.926;2023-04-19T09:30:57;5.70;;;3.00;;
37349;SDS011;23231;52.358;4.926;2023-04-19T09:35:58;5.97;;;2.83;;
37349;SDS011;23231;52.358;4.926;2023-04-19T09:41:06;7.18;;;2.90;;
37349;SDS011;23231;52.358;4.926;2023-04-19T09:46:07;5.70;;;3.47;;
37349;SDS011;23231;52.358;4.926;2023-04-19T09:51:07;6.07;;;3.28;;
37349;SDS011;23231;52.358;4.926;2023-04-19T09:56:09;7.32;;;3.08;;
37349;SDS011;23231;52.358;4.926;2023-04-19T10:01:11;5.57;;;3.28;;
37349;SDS011;23231;52.358;4.926;2023-04-19T10:06:14;6.25;;;2.95;;
37349;SDS011;23231;52.358;4.926;2023-04-19T10:11:16;3.83;;;2.17;;
37349;SDS011;23231;52.358;4.926;2023-04-19T10:16:17;9.57;;;2.40;;
37349;SDS011;23231;52.358;4.926;2023-04-19T10:21:18;4.38;;;2.30;;
37349;SDS011;23231;52.358;4.926;2023-04-19T10:26:19;8.20;;;2.65;;
37349;SDS011;23231;52.358;4.926;2023-04-19T10:31:21;6.13;;;2.22;;
37349;SDS011;23231;52.358;4.926;2023-04-19T10:36:25;4.97;;;2.20;;
37349;SDS011;23231;52.358;4.926;2023-04-19T10:41:55;3.30;;;1.88;;
37349;SDS011;23231;52.358;4.926;2023-04-19T10:46:57;4.88;;;2.65;;
37349;SDS011;23231;52.358;4.926;2023-04-19T10:51:58;5.20;;;2.40;;
37349;SDS011;23231;52.358;4.926;2023-04-19T11:02:04;5.80;;;2.40;;
37349;SDS011;23231;52.358;4.926;2023-04-19T11:07:26;5.63;;;2.72;;
37349;SDS011;23231;52.358;4.926;2023-04-19T11:12:27;5.13;;;2.72;;
37349;SDS011;23231;52.358;4.926;2023-04-19T11:17:30;6.20;;;2.90;;
37349;SDS011;23231;52.358;4.926;2023-04-19T11:22:33;5.32;;;3.10;;
37349;SDS011;23231;52.358;4.926;2023-04-19T11:27:36;7.83;;;2.93;;
37349;SDS011;23231;52.358;4.926;2023-04-19T11:32:43;7.82;;;3.22;;
37349;SDS011;23231;52.358;4.926;2023-04-19T11:37:44;5.57;;;3.25;;
37349;SDS011;23231;52.358;4.926;2023-04-19T11:42:45;8.90;;;4.20;;
37349;SDS011;23231;52.358;4.926;2023-04-19T11:47:46;6.20;;;3.60;;
37349;SDS011;23231;52.358;4.926;2023-04-19T11:52:48;8.00;;;3.92;;
37349;SDS011;23231;52.358;4.926;2023-04-19T11:57:48;5.75;;;3.78;;
37349;SDS011;23231;52.358;4.926;2023-04-19T12:02:48;6.25;;;3.67;;
37349;SDS011;23231;52.358;4.926;2023-04-19T12:07:58;9.25;;;4.03;;
37349;SDS011;23231;52.358;4.926;2023-04-19T12:13:15;7.80;;;3.67;;
37349;SDS011;23231;52.358;4.926;2023-04-19T12:18:16;8.02;;;3.70;;
37349;SDS011;23231;52.358;4.926;2023-04-19T12:23:17;10.13;;;3.55;;
37349;SDS011;23231;52.358;4.926;2023-04-19T12:28:18;7.13;;;3.13;;
37349;SDS011;23231;52.358;4.926;2023-04-19T13:05:10;10.30;;;3.72;;
37349;SDS011;23231;52.358;4.926;2023-04-19T13:10:14;9.95;;;3.50;;
37349;SDS011;23231;52.358;4.926;2023-04-19T13:15:39;6.22;;;3.53;;
37349;SDS011;23231;52.358;4.926;2023-04-19T13:20:55;6.13;;;3.30;;
37349;SDS011;23231;52.358;4.926;2023-04-19T13:25:58;7.65;;;3.42;;
37349;SDS011;23231;52.358;4.926;2023-04-19T13:31:04;7.53;;;3.08;;
37349;SDS011;23231;52.358;4.926;2023-04-19T13:36:05;6.57;;;2.80;;
37349;SDS011;23231;52.358;4.926;2023-04-19T13:41:06;5.05;;;3.00;;
37349;SDS011;23231;52.358;4.926;2023-04-19T13:57:51;5.15;;;2.30;;
37349;SDS011;23231;52.358;4.926;2023-04-19T14:02:54;5.65;;;2.00;;
37349;SDS011;23231;52.358;4.926;2023-04-19T14:07:57;3.35;;;1.92;;
37349;SDS011;23231;52.358;4.926;2023-04-19T14:13:01;5.28;;;2.40;;
37349;SDS011;23231;52.358;4.926;2023-04-19T14:29:14;4.47;;;2.30;;
37349;SDS011;23231;52.358;4.926;2023-04-19T14:34:17;4.75;;;2.25;;
37349;SDS011;23231;52.358;4.926;2023-04-19T14:45:16;5.72;;;2.40;;
37349;SDS011;23231;52.358;4.926;2023-04-19T14:50:16;6.45;;;2.38;;
37349;SDS011;23231;52.358;4.926;2023-04-19T14:55:17;6.68;;;2.45;;
37349;SDS011;23231;52.358;4.926;2023-04-19T15:29:48;4.57;;;3.20;;
37349;SDS011;23231;52.358;4.926;2023-04-19T15:34:49;7.40;;;3.60;;
37349;SDS011;23231;52.358;4.926;2023-04-19T15:39:49;6.15;;;3.88;;
37349;SDS011;23231;52.358;4.926;2023-04-19T15:44:50;8.00;;;4.60;;
37349;SDS011;23231;52.358;4.926;2023-04-19T15:49:51;8.18;;;4.40;;
37349;SDS011;23231;52.358;4.926;2023-04-19T15:54:53;9.40;;;4.65;;
37349;SDS011;23231;52.358;4.926;2023-04-19T15:59:53;7.95;;;4.35;;
37349;SDS011;23231;52.358;4.926;2023-04-19T16:04:53;9.20;;;4.63;;
37349;SDS011;23231;52.358;4.926;2023-04-19T16:09:54;8.27;;;5.07;;
37349;SDS011;23231;52.358;4.926;2023-04-19T16:14:54;9.63;;;5.10;;
37349;SDS011;23231;52.358;4.926;2023-04-19T16:19:55;8.52;;;4.90;;
37349;SDS011;23231;52.358;4.926;2023-04-19T16:24:55;8.65;;;4.35;;
37349;SDS011;23231;52.358;4.926;2023-04-19T16:29:56;7.97;;;4.20;;
37349;SDS011;23231;52.358;4.926;2023-04-19T16:34:56;9.20;;;4.75;;
37349;SDS011;23231;52.358;4.926;2023-04-19T16:39:57;8.38;;;4.63;;
37349;SDS011;23231;52.358;4.926;2023-04-19T16:44:58;8.02;;;4.85;;
37349;SDS011;23231;52.358;4.926;2023-04-19T16:49:59;9.00;;;4.97;;
37349;SDS011;23231;52.358;4.926;2023-04-19T16:55:00;12.75;;;5.32;;
37349;SDS011;23231;52.358;4.926;2023-04-19T17:00:03;8.75;;;4.47;;
37349;SDS011;23231;52.358;4.926;2023-04-19T17:05:05;8.23;;;4.95;;
37349;SDS011;23231;52.358;4.926;2023-04-19T17:10:06;7.93;;;4.85;;
37349;SDS011;23231;52.358;4.926;2023-04-19T17:15:07;8.75;;;4.82;;
37349;SDS011;23231;52.358;4.926;2023-04-19T17:20:08;9.85;;;4.90;;
37349;SDS011;23231;52.358;4.926;2023-04-19T17:25:09;7.30;;;4.20;;
37349;SDS011;23231;52.358;4.926;2023-04-19T17:30:09;7.25;;;4.35;;
37349;SDS011;23231;52.358;4.926;2023-04-19T17:35:10;7.65;;;4.25;;
37349;SDS011;23231;52.358;4.926;2023-04-19T17:40:10;9.55;;;4.70;;
37349;SDS011;23231;52.358;4.926;2023-04-19T17:45:11;9.00;;;4.28;;
37349;SDS011;23231;52.358;4.926;2023-04-19T17:50:12;10.50;;;4.38;;
37349;SDS011;23231;52.358;4.926;2023-04-19T17:55:12;8.27;;;4.20;;
37349;SDS011;23231;52.358;4.926;2023-04-19T18:00:13;24.90;;;5.18;;
37349;SDS011;23231;52.358;4.926;2023-04-19T18:05:14;10.25;;;4.32;;
37349;SDS011;23231;52.358;4.926;2023-04-19T18:10:14;8.15;;;3.85;;
37349;SDS011;23231;52.358;4.926;2023-04-19T18:15:15;17.75;;;9.13;;
37349;SDS011;23231;52.358;4.926;2023-04-19T18:20:15;7.60;;;3.45;;
37349;SDS011;23231;52.358;4.926;2023-04-19T18:25:17;7.45;;;3.78;;
37349;SDS011;23231;52.358;4.926;2023-04-19T18:30:17;8.00;;;3.90;;
37349;SDS011;23231;52.358;4.926;2023-04-19T18:35:18;7.03;;;3.35;;
37349;SDS011;23231;52.358;4.926;2023-04-19T18:40:18;8.50;;;3.72;;
37349;SDS011;23231;52.358;4.926;2023-04-19T18:45:19;6.75;;;3.50;;
37349;SDS011;23231;52.358;4.926;2023-04-19T18:50:20;8.70;;;3.80;;
37349;SDS011;23231;52.358;4.926;2023-04-19T18:55:20;9.15;;;4.55;;
37349;SDS011;23231;52.358;4.926;2023-04-19T19:00:20;8.55;;;4.75;;
37349;SDS011;23231;52.358;4.926;2023-04-19T19:05:21;8.48;;;3.92;;
37349;SDS011;23231;52.358;4.926;2023-04-19T19:10:21;8.38;;;3.88;;
37349;SDS011;23231;52.358;4.926;2023-04-19T19:15:22;9.35;;;4.82;;
37349;SDS011;23231;52.358;4.926;2023-04-19T19:20:22;9.15;;;4.05;;
37349;SDS011;23231;52.358;4.926;2023-04-19T19:25:23;10.70;;;4.68;;
37349;SDS011;23231;52.358;4.926;2023-04-19T19:30:24;8.63;;;3.92;;
37349;SDS011;23231;52.358;4.926;2023-04-19T19:35:24;11.65;;;4.68;;
37349;SDS011;23231;52.358;4.926;2023-04-19T19:40:25;12.70;;;4.38;;
37349;SDS011;23231;52.358;4.926;2023-04-19T19:45:29;7.70;;;3.63;;
37349;SDS011;23231;52.358;4.926;2023-04-19T19:50:30;6.82;;;3.75;;
37349;SDS011;23231;52.358;4.926;2023-04-19T19:55:31;7.50;;;4.13;;
37349;SDS011;23231;52.358;4.926;2023-04-19T20:00:31;7.90;;;4.15;;
37349;SDS011;23231;52.358;4.926;2023-04-19T20:05:33;7.65;;;3.83;;
37349;SDS011;23231;52.358;4.926;2023-04-19T20:10:33;11.60;;;4.65;;
37349;SDS011;23231;52.358;4.926;2023-04-19T20:15:34;6.88;;;3.92;;
37349;SDS011;23231;52.358;4.926;2023-04-19T20:20:35;6.97;;;4.22;;
37349;SDS011;23231;52.358;4.926;2023-04-19T20:25:36;9.48;;;4.10;;
37349;SDS011;23231;52.358;4.926;2023-04-19T20:30:37;7.75;;;3.95;;
37349;SDS011;23231;52.358;4.926;2023-04-19T20:35:38;8.30;;;4.07;;
37349;SDS011;23231;52.358;4.926;2023-04-19T20:40:38;6.53;;;3.40;;
37349;SDS011;23231;52.358;4.926;2023-04-19T20:45:38;6.93;;;3.80;;
37349;SDS011;23231;52.358;4.926;2023-04-19T20:50:39;7.30;;;3.42;;
37349;SDS011;23231;52.358;4.926;2023-04-19T20:55:41;9.35;;;4.13;;
37349;SDS011;23231;52.358;4.926;2023-04-19T21:00:42;10.18;;;3.97;;
37349;SDS011;23231;52.358;4.926;2023-04-19T21:05:43;8.73;;;4.10;;
37349;SDS011;23231;52.358;4.926;2023-04-19T21:10:43;6.63;;;3.45;;
37349;SDS011;23231;52.358;4.926;2023-04-19T21:15:44;7.63;;;3.50;;
37349;SDS011;23231;52.358;4.926;2023-04-19T21:20:44;6.93;;;3.40;;
37349;SDS011;23231;52.358;4.926;2023-04-19T21:25:44;6.45;;;3.50;;
37349;SDS011;23231;52.358;4.926;2023-04-19T21:30:45;7.15;;;3.17;;
37349;SDS011;23231;52.358;4.926;2023-04-19T21:35:45;7.80;;;3.10;;
37349;SDS011;23231;52.358;4.926;2023-04-19T21:40:46;6.90;;;3.05;;
37349;SDS011;23231;52.358;4.926;2023-04-19T21:45:47;8.80;;;3.03;;
37349;SDS011;23231;52.358;4.926;2023-04-19T21:50:48;6.85;;;3.00;;
37349;SDS011;23231;52.358;4.926;2023-04-19T21:55:48;8.70;;;2.97;;
37349;SDS011;23231;52.358;4.926;2023-04-19T22:00:49;8.70;;;3.00;;
37349;SDS011;23231;52.358;4.926;2023-04-19T22:05:52;6.68;;;2.78;;
37349;SDS011;23231;52.358;4.926;2023-04-19T22:10:52;6.13;;;2.83;;
37349;SDS011;23231;52.358;4.926;2023-04-19T22:15:55;7.15;;;2.95;;
37349;SDS011;23231;52.358;4.926;2023-04-19T22:20:56;5.20;;;2.25;;
37349;SDS011;23231;52.358;4.926;2023-04-19T22:25:56;4.85;;;2.30;;
37349;SDS011;23231;52.358;4.926;2023-04-19T22:30:56;5.43;;;2.38;;
37349;SDS011;23231;52.358;4.926;2023-04-19T22:35:57;6.25;;;2.50;;
37349;SDS011;23231;52.358;4.926;2023-04-19T22:40:57;6.25;;;2.50;;
37349;SDS011;23231;52.358;4.926;2023-04-19T22:45:58;9.32;;;2.60;;
37349;SDS011;23231;52.358;4.926;2023-04-19T22:50:59;3.85;;;2.20;;
37349;SDS011;23231;52.358;4.926;2023-04-19T22:55:59;4.47;;;2.17;;
37349;SDS011;23231;52.358;4.926;2023-04-19T23:01:00;6.60;;;2.50;;
37349;SDS011;23231;52.358;4.926;2023-04-19T23:06:00;7.63;;;2.58;;
37349;SDS011;23231;52.358;4.926;2023-04-19T23:11:01;5.40;;;2.25;;
37349;SDS011;23231;52.358;4.926;2023-04-19T23:16:01;5.63;;;2.60;;
37349;SDS011;23231;52.358;4.926;2023-04-19T23:21:02;6.07;;;2.80;;
37349;SDS011;23231;52.358;4.926;2023-04-19T23:26:03;7.85;;;2.72;;
37349;SDS011;23231;52.358;4.926;2023-04-19T23:31:03;12.85;;;2.88;;
37349;SDS011;23231;52.358;4.926;2023-04-19T23:36:03;11.45;;;3.38;;
37349;SDS011;23231;52.358;4.926;2023-04-19T23:41:04;5.72;;;2.80;;
37349;SDS011;23231;52.358;4.926;2023-04-19T23:46:05;6.80;;;3.15;;
37349;SDS011;23231;52.358;4.926;2023-04-19T23:51:05;6.38;;;2.72;;
37349;SDS011;23231;52.358;4.926;2023-04-19T23:56:06;4.78;;;2.65;;
